createdAt,value
2022-09-10T00:02:35.000Z,44.19
2022-09-10T00:07:34.000Z,44.16
2022-09-10T00:12:35.000Z,45.04
2022-09-10T00:22:35.000Z,48.04
2022-09-10T00:27:35.000Z,47.64
2022-09-10T00:32:34.000Z,49.57
2022-09-10T00:37:35.000Z,49.45
2022-09-10T00:42:34.000Z,49.48
2022-09-10T00:47:34.000Z,50.87
2022-09-10T00:52:35.000Z,50.79
2022-09-10T00:57:34.000Z,50.99
2022-09-10T01:07:35.000Z,50.71
2022-09-10T01:12:35.000Z,50.58
2022-09-10T01:17:35.000Z,49.39
2022-09-10T01:22:35.000Z,49.51
2022-09-10T01:27:34.000Z,49.08
2022-09-10T01:32:35.000Z,46.35
2022-09-10T01:37:34.000Z,46.26
2022-09-10T01:42:35.000Z,48.24
2022-09-10T01:47:34.000Z,48.22
2022-09-10T01:52:35.000Z,49.03
2022-09-10T01:57:34.000Z,48.73
2022-09-10T02:02:34.000Z,48.73
2022-09-10T02:07:35.000Z,49.29
2022-09-10T02:12:34.000Z,49.35
2022-09-10T02:17:34.000Z,50.08
2022-09-10T02:27:34.000Z,52.38
2022-09-10T02:32:34.000Z,51.17
2022-09-10T02:37:34.000Z,51.17
2022-09-10T02:42:34.000Z,50.93
2022-09-10T02:47:34.000Z,50.98
2022-09-10T02:52:35.000Z,49.08
2022-09-10T02:57:35.000Z,50.39
2022-09-10T03:02:34.000Z,49.47
2022-09-10T03:07:34.000Z,51.24
2022-09-10T03:12:35.000Z,51.78
2022-09-10T03:17:35.000Z,53.41
2022-09-10T03:22:35.000Z,51.57
2022-09-10T03:27:35.000Z,51.3
2022-09-10T03:32:34.000Z,51.8
2022-09-10T03:42:34.000Z,52.96
2022-09-10T03:47:34.000Z,53.05
2022-09-10T03:52:35.000Z,52.13
2022-09-10T03:57:34.000Z,52.52
2022-09-10T04:02:35.000Z,52.32
2022-09-10T04:07:35.000Z,51.02
2022-09-10T04:12:34.000Z,51.02
2022-09-10T04:17:35.000Z,50.48
2022-09-10T04:22:35.000Z,52.4
2022-09-10T04:27:35.000Z,54.56
2022-09-10T04:32:35.000Z,60.74
2022-09-10T04:37:35.000Z,62.72
2022-09-10T04:42:34.000Z,63.2
2022-09-10T04:47:35.000Z,60.92
2022-09-10T04:52:35.000Z,60.52
2022-09-10T04:57:34.000Z,59.97
2022-09-10T05:02:34.000Z,55.42
2022-09-10T05:07:34.000Z,54.32
2022-09-10T05:12:34.000Z,52.55
2022-09-10T05:17:35.000Z,51.5
2022-09-10T05:22:41.000Z,50.02
2022-09-10T05:27:35.000Z,50.02
2022-09-10T05:32:35.000Z,50.58
2022-09-10T05:37:35.000Z,45.09
2022-09-10T05:42:34.000Z,35.53
2022-09-10T05:47:35.000Z,33.2
2022-09-10T05:52:35.000Z,29.64
2022-09-10T05:57:34.000Z,23.93
2022-09-10T06:02:34.000Z,19.85
2022-09-10T06:07:35.000Z,20.3
2022-09-10T06:12:34.000Z,14.94
2022-09-10T06:17:35.000Z,12.26
2022-09-10T06:22:34.000Z,12.59
2022-09-10T06:27:34.000Z,18.37
2022-09-10T06:32:35.000Z,15.34
2022-09-10T06:37:35.000Z,13.03
2022-09-10T06:42:34.000Z,13.03
2022-09-10T06:48:48.000Z,10.61
2022-09-10T06:57:35.000Z,12.43
2022-09-10T07:02:35.000Z,10.13
2022-09-10T07:07:34.000Z,6.83
2022-09-10T07:12:35.000Z,7.29
2022-09-10T07:17:41.000Z,7.09
2022-09-10T07:22:34.000Z,6.67
2022-09-10T07:27:34.000Z,5.33
2022-09-10T07:32:34.000Z,4.89
2022-09-10T07:37:34.000Z,5.58
2022-09-10T07:42:34.000Z,4.41
2022-09-10T07:47:35.000Z,4.33
2022-09-10T07:52:34.000Z,3.61
2022-09-10T07:57:35.000Z,3.61
2022-09-10T08:02:35.000Z,2.39
2022-09-10T08:07:35.000Z,2.92
2022-09-10T08:12:35.000Z,2.06
2022-09-10T08:17:35.000Z,2.66
2022-09-10T08:22:34.000Z,3.34
2022-09-10T08:27:34.000Z,2.25
2022-09-10T08:32:35.000Z,1.87
2022-09-10T08:37:34.000Z,2.31
2022-09-10T08:42:35.000Z,1.76
2022-09-10T08:47:35.000Z,1.66
2022-09-10T08:52:35.000Z,2.03
2022-09-10T08:57:35.000Z,2.42
2022-09-10T09:02:58.000Z,2.41
2022-09-10T09:07:34.000Z,2.41
2022-09-10T09:12:35.000Z,2.41
2022-09-10T09:17:35.000Z,3.83
2022-09-10T09:22:35.000Z,3.16
2022-09-10T09:27:35.000Z,5.81
2022-09-10T09:32:34.000Z,6.14
2022-09-10T09:37:35.000Z,3.52
2022-09-10T09:42:34.000Z,3.4
2022-09-10T09:47:34.000Z,7.43
2022-09-10T09:52:35.000Z,3.71
2022-09-10T09:57:34.000Z,3.28
2022-09-10T10:02:36.000Z,3.82
2022-09-10T10:07:35.000Z,4.95
2022-09-10T10:12:35.000Z,5.24
2022-09-10T10:17:34.000Z,5.28
2022-09-10T10:22:35.000Z,6.13
2022-09-10T10:27:35.000Z,6.13
2022-09-10T10:37:34.000Z,7.21
2022-09-10T10:42:34.000Z,7.05
2022-09-10T10:47:35.000Z,7.88
2022-09-10T10:52:34.000Z,6.46
2022-09-10T10:57:35.000Z,6.74
2022-09-10T11:02:35.000Z,8.17
2022-09-10T11:07:35.000Z,9.3
2022-09-10T11:12:34.000Z,9.03
2022-09-10T11:17:35.000Z,9.18
2022-09-10T11:22:34.000Z,9.66
2022-09-10T11:27:35.000Z,9.44
2022-09-10T11:32:35.000Z,11.45
2022-09-10T11:37:34.000Z,11.45
2022-09-10T11:42:34.000Z,10.77
2022-09-10T11:47:35.000Z,10.33
2022-09-10T11:52:35.000Z,10.67
2022-09-10T11:57:35.000Z,11.22
2022-09-10T12:02:35.000Z,12.29
2022-09-10T12:07:35.000Z,11.52
2022-09-10T12:12:34.000Z,11.21
2022-09-10T12:17:35.000Z,12.9
2022-09-10T12:22:35.000Z,12.57
2022-09-10T12:27:35.000Z,12.48
2022-09-10T12:32:34.000Z,12.46
2022-09-10T12:37:34.000Z,11.84
2022-09-10T12:42:34.000Z,10.24
2022-09-10T12:47:35.000Z,11.78
2022-09-10T12:52:35.000Z,11.78
2022-09-10T12:57:35.000Z,12.05
2022-09-10T13:02:34.000Z,11.42
2022-09-10T13:07:34.000Z,10.25
2022-09-10T13:12:35.000Z,12.1
2022-09-10T13:17:34.000Z,14.69
2022-09-10T13:22:34.000Z,13.28
2022-09-10T13:27:35.000Z,13.6
2022-09-10T13:32:35.000Z,13.75
2022-09-10T13:37:35.000Z,14.67
2022-09-10T13:42:35.000Z,15.39
2022-09-10T13:47:34.000Z,15.73
2022-09-10T13:52:35.000Z,15.3
2022-09-10T13:57:35.000Z,15.95
2022-09-10T14:02:35.000Z,14.84
2022-09-10T14:07:35.000Z,14.84
2022-09-10T14:17:34.000Z,16.18
2022-09-10T14:22:35.000Z,14.2
2022-09-10T14:27:35.000Z,13.66
2022-09-10T14:32:35.000Z,15.22
2022-09-10T14:37:35.000Z,14.83
2022-09-10T14:42:35.000Z,14.09
2022-09-10T14:47:35.000Z,14.95
2022-09-10T14:52:35.000Z,14.43
2022-09-10T14:57:34.000Z,15.05
2022-09-10T15:02:35.000Z,14.56
2022-09-10T15:07:34.000Z,14.56
2022-09-10T15:12:35.000Z,15.55
2022-09-10T15:17:34.000Z,15.22
2022-09-10T15:22:34.000Z,16.63
2022-09-10T15:27:34.000Z,16.63
2022-09-10T15:37:35.000Z,48.96
2022-09-10T15:42:34.000Z,25.67
2022-09-10T15:52:35.000Z,23.69
2022-09-10T15:57:34.000Z,23.89
2022-09-10T16:02:35.000Z,22.82
2022-09-10T16:07:35.000Z,22.34
2022-09-10T16:12:35.000Z,25.63
2022-09-10T16:17:35.000Z,33.77
2022-09-10T16:22:35.000Z,47.95
2022-09-10T16:27:34.000Z,51.19
2022-09-10T16:32:35.000Z,42.88
2022-09-10T16:37:35.000Z,29.82
2022-09-10T16:42:34.000Z,29.2
2022-09-10T16:47:35.000Z,30.07
2022-09-10T16:52:35.000Z,29.18
2022-09-10T16:57:35.000Z,29.18
2022-09-10T17:02:35.000Z,30.68
2022-09-10T17:07:35.000Z,38.51
2022-09-10T17:12:34.000Z,36.18
2022-09-10T17:17:35.000Z,36.49
2022-09-10T17:22:34.000Z,41.33
2022-09-10T17:27:35.000Z,40.8
2022-09-10T17:32:35.000Z,42.89
2022-09-10T17:37:35.000Z,42.72
2022-09-10T17:42:35.000Z,44.42
2022-09-10T17:47:34.000Z,45.82
2022-09-10T17:52:34.000Z,47.39
2022-09-10T17:57:34.000Z,47.77
2022-09-10T18:02:34.000Z,48.17
2022-09-10T18:07:34.000Z,49.32
2022-09-10T18:12:35.000Z,49.32
2022-09-10T18:17:35.000Z,50.04
2022-09-10T18:22:35.000Z,50.77
2022-09-10T18:27:35.000Z,51.47
2022-09-10T18:32:36.000Z,51.59
2022-09-10T18:42:35.000Z,52.81
2022-09-10T18:47:54.000Z,51.97
2022-09-10T18:52:34.000Z,52.11
2022-09-10T18:57:34.000Z,54.63
2022-09-10T19:02:34.000Z,65.78
2022-09-10T19:07:35.000Z,54.56
2022-09-10T19:12:35.000Z,54.88
2022-09-10T19:17:34.000Z,56.45
2022-09-10T19:22:35.000Z,56.45
2022-09-10T19:27:35.000Z,57.84
2022-09-10T19:32:34.000Z,53.28
2022-09-10T19:37:35.000Z,54.14
2022-09-10T19:42:35.000Z,56.94
2022-09-10T19:47:34.000Z,56.37
2022-09-10T19:52:35.000Z,56.25
2022-09-10T19:57:35.000Z,59.73
2022-09-10T20:02:35.000Z,57.1
2022-09-10T20:07:35.000Z,58.29
2022-09-10T20:12:35.000Z,58.45
2022-09-10T20:17:35.000Z,59.52
2022-09-10T20:22:34.000Z,59.04
2022-09-10T20:27:34.000Z,57.58
2022-09-10T20:32:35.000Z,59.62
2022-09-10T20:37:34.000Z,59.62
2022-09-10T20:42:34.000Z,63.65
2022-09-10T20:47:34.000Z,60.91
2022-09-10T20:52:34.000Z,60.13
2022-09-10T20:57:35.000Z,59.23
2022-09-10T21:02:35.000Z,58.85
2022-09-10T21:07:34.000Z,57.94
2022-09-10T21:12:34.000Z,57.53
2022-09-10T21:17:35.000Z,56.65
2022-09-10T21:22:34.000Z,57.59
2022-09-10T21:27:35.000Z,59.16
2022-09-10T21:32:35.000Z,59.1
2022-09-10T21:37:34.000Z,57.39
2022-09-10T21:42:35.000Z,56.82
2022-09-10T21:47:35.000Z,57.21
2022-09-10T21:52:35.000Z,57.21
2022-09-10T21:57:34.000Z,55.53
2022-09-10T22:02:35.000Z,55.08
2022-09-10T22:07:34.000Z,54.12
2022-09-10T22:12:35.000Z,54.62
2022-09-10T22:17:34.000Z,55.55
2022-09-10T22:22:35.000Z,56.86
2022-09-10T22:27:34.000Z,57.01
2022-09-10T22:32:35.000Z,56.51
2022-09-10T22:37:35.000Z,55.54
2022-09-10T22:42:35.000Z,57.52
2022-09-10T22:47:35.000Z,60.18
2022-09-10T22:52:35.000Z,59.25
2022-09-10T22:57:34.000Z,54.72
2022-09-10T23:02:34.000Z,55.89
2022-09-10T23:07:34.000Z,56.58
2022-09-10T23:12:35.000Z,56.58
2022-09-10T23:17:34.000Z,58.25
2022-09-10T23:22:34.000Z,58.75
2022-09-10T23:27:34.000Z,58.6
2022-09-10T23:32:35.000Z,59.13
2022-09-10T23:37:35.000Z,61.07
2022-09-10T23:42:34.000Z,62.24
2022-09-10T23:47:35.000Z,63.9
2022-09-10T23:52:35.000Z,69.63
2022-09-10T23:57:35.000Z,73.93
